sensor_id;sensor_type;location;lat;lon;timestamp;temperature;humidity
65864;SHT30;52639;51.180;20.460;2023-09-12T00:01:45;12.76;88.79
65864;SHT30;52639;51.180;20.460;2023-09-12T00:06:03;12.66;88.74
65864;SHT30;52639;51.180;20.460;2023-09-12T00:10:28;12.58;88.94
65864;SHT30;52639;51.180;20.460;2023-09-12T00:14:31;12.55;88.94
65864;SHT30;52639;51.180;20.460;2023-09-12T00:18:34;12.58;88.91
65864;SHT30;52639;51.180;20.460;2023-09-12T00:22:36;12.56;88.91
65864;SHT30;52639;51.180;20.460;2023-09-12T00:26:41;12.55;88.87
65864;SHT30;52639;51.180;20.460;2023-09-12T00:30:44;12.52;88.97
65864;SHT30;52639;51.180;20.460;2023-09-12T00:34:47;12.41;89.07
65864;SHT30;52639;51.180;20.460;2023-09-12T00:38:50;12.41;89.18
65864;SHT30;52639;51.180;20.460;2023-09-12T00:43:02;12.41;89.15
65864;SHT30;52639;51.180;20.460;2023-09-12T00:47:13;12.37;89.26
65864;SHT30;52639;51.180;20.460;2023-09-12T00:51:16;12.42;89.61
65864;SHT30;52639;51.180;20.460;2023-09-12T00:55:22;12.44;89.47
65864;SHT30;52639;51.180;20.460;2023-09-12T00:59:26;12.42;89.57
65864;SHT30;52639;51.180;20.460;2023-09-12T01:03:30;12.38;89.45
65864;SHT30;52639;51.180;20.460;2023-09-12T01:07:34;12.34;89.55
65864;SHT30;52639;51.180;20.460;2023-09-12T01:11:40;12.39;89.48
65864;SHT30;52639;51.180;20.460;2023-09-12T01:15:45;12.38;89.44
65864;SHT30;52639;51.180;20.460;2023-09-12T01:19:48;12.42;89.76
65864;SHT30;52639;51.180;20.460;2023-09-12T01:24:01;12.49;89.45
65864;SHT30;52639;51.180;20.460;2023-09-12T01:28:19;12.56;89.31
65864;SHT30;52639;51.180;20.460;2023-09-12T01:32:26;12.63;89.70
65864;SHT30;52639;51.180;20.460;2023-09-12T01:36:29;12.72;89.48
65864;SHT30;52639;51.180;20.460;2023-09-12T01:40:42;12.76;89.38
65864;SHT30;52639;51.180;20.460;2023-09-12T01:44:50;12.85;89.46
65864;SHT30;52639;51.180;20.460;2023-09-12T01:48:59;12.89;89.44
65864;SHT30;52639;51.180;20.460;2023-09-12T01:53:03;12.90;89.46
65864;SHT30;52639;51.180;20.460;2023-09-12T01:57:07;12.92;89.76
65864;SHT30;52639;51.180;20.460;2023-09-12T02:01:44;12.96;89.74
65864;SHT30;52639;51.180;20.460;2023-09-12T02:05:50;12.96;89.64
65864;SHT30;52639;51.180;20.460;2023-09-12T02:10:08;12.93;89.43
65864;SHT30;52639;51.180;20.460;2023-09-12T02:14:11;12.97;89.43
65864;SHT30;52639;51.180;20.460;2023-09-12T02:18:16;12.99;89.54
65864;SHT30;52639;51.180;20.460;2023-09-12T02:22:19;13.00;89.66
65864;SHT30;52639;51.180;20.460;2023-09-12T02:26:21;13.03;89.57
65864;SHT30;52639;51.180;20.460;2023-09-12T02:30:24;13.10;89.46
65864;SHT30;52639;51.180;20.460;2023-09-12T02:34:29;13.10;89.39
65864;SHT30;52639;51.180;20.460;2023-09-12T02:38:32;13.17;89.36
65864;SHT30;52639;51.180;20.460;2023-09-12T02:42:35;13.22;89.60
65864;SHT30;52639;51.180;20.460;2023-09-12T02:46:39;13.20;89.59
65864;SHT30;52639;51.180;20.460;2023-09-12T02:50:42;13.14;89.51
65864;SHT30;52639;51.180;20.460;2023-09-12T02:54:45;13.12;89.62
65864;SHT30;52639;51.180;20.460;2023-09-12T02:58:48;13.13;89.99
65864;SHT30;52639;51.180;20.460;2023-09-12T03:02:52;13.20;90.19
65864;SHT30;52639;51.180;20.460;2023-09-12T03:07:01;13.26;89.82
65864;SHT30;52639;51.180;20.460;2023-09-12T03:11:03;13.28;89.83
65864;SHT30;52639;51.180;20.460;2023-09-12T03:15:11;13.33;89.75
65864;SHT30;52639;51.180;20.460;2023-09-12T03:19:14;13.34;89.63
65864;SHT30;52639;51.180;20.460;2023-09-12T03:23:19;13.28;89.60
65864;SHT30;52639;51.180;20.460;2023-09-12T03:27:22;13.22;89.77
65864;SHT30;52639;51.180;20.460;2023-09-12T03:31:28;13.23;89.84
65864;SHT30;52639;51.180;20.460;2023-09-12T03:35:32;13.28;89.95
65864;SHT30;52639;51.180;20.460;2023-09-12T03:39:36;13.32;89.90
65864;SHT30;52639;51.180;20.460;2023-09-12T03:43:39;13.34;90.12
65864;SHT30;52639;51.180;20.460;2023-09-12T03:47:42;13.34;89.91
65864;SHT30;52639;51.180;20.460;2023-09-12T03:51:49;13.27;89.90
65864;SHT30;52639;51.180;20.460;2023-09-12T03:55:54;13.20;90.00
65864;SHT30;52639;51.180;20.460;2023-09-12T03:59:57;13.27;90.11
65864;SHT30;52639;51.180;20.460;2023-09-12T04:04:00;13.28;89.94
65864;SHT30;52639;51.180;20.460;2023-09-12T04:08:03;13.27;89.95
65864;SHT30;52639;51.180;20.460;2023-09-12T04:12:08;13.30;89.94
65864;SHT30;52639;51.180;20.460;2023-09-12T04:16:11;13.32;89.95
65864;SHT30;52639;51.180;20.460;2023-09-12T04:20:15;13.28;90.03
65864;SHT30;52639;51.180;20.460;2023-09-12T04:24:18;13.28;90.04
65864;SHT30;52639;51.180;20.460;2023-09-12T04:28:22;13.34;90.03
65864;SHT30;52639;51.180;20.460;2023-09-12T04:32:28;13.37;89.93
65864;SHT30;52639;51.180;20.460;2023-09-12T04:36:31;13.43;89.90
65864;SHT30;52639;51.180;20.460;2023-09-12T04:40:34;13.48;89.83
65864;SHT30;52639;51.180;20.460;2023-09-12T04:44:39;13.63;89.57
65864;SHT30;52639;51.180;20.460;2023-09-12T04:48:43;13.84;89.33
65864;SHT30;52639;51.180;20.460;2023-09-12T04:52:45;14.05;88.88
65864;SHT30;52639;51.180;20.460;2023-09-12T04:56:48;14.24;88.60
65864;SHT30;52639;51.180;20.460;2023-09-12T05:00:54;14.41;88.29
65864;SHT30;52639;51.180;20.460;2023-09-12T05:04:57;14.55;88.35
65864;SHT30;52639;51.180;20.460;2023-09-12T05:08:59;14.93;87.68
65864;SHT30;52639;51.180;20.460;2023-09-12T05:13:02;15.11;87.28
65864;SHT30;52639;51.180;20.460;2023-09-12T05:17:06;15.50;86.75
65864;SHT30;52639;51.180;20.460;2023-09-12T05:21:09;15.90;86.15
65864;SHT30;52639;51.180;20.460;2023-09-12T05:25:14;15.88;86.47
65864;SHT30;52639;51.180;20.460;2023-09-12T05:29:17;16.16;86.31
65864;SHT30;52639;51.180;20.460;2023-09-12T05:33:22;16.39;85.99
65864;SHT30;52639;51.180;20.460;2023-09-12T05:37:25;16.83;85.27
65864;SHT30;52639;51.180;20.460;2023-09-12T05:41:28;17.31;84.62
65864;SHT30;52639;51.180;20.460;2023-09-12T05:45:30;17.62;84.07
65864;SHT30;52639;51.180;20.460;2023-09-12T05:49:35;17.77;83.99
65864;SHT30;52639;51.180;20.460;2023-09-12T05:53:38;19.68;79.85
65864;SHT30;52639;51.180;20.460;2023-09-12T05:57:42;21.32;77.93
65864;SHT30;52639;51.180;20.460;2023-09-12T06:01:45;23.65;72.99
65864;SHT30;52639;51.180;20.460;2023-09-12T06:06:05;22.03;78.23
65864;SHT30;52639;51.180;20.460;2023-09-12T06:10:09;21.58;79.58
65864;SHT30;52639;51.180;20.460;2023-09-12T06:14:15;20.60;82.41
65864;SHT30;52639;51.180;20.460;2023-09-12T06:18:18;20.39;82.77
65864;SHT30;52639;51.180;20.460;2023-09-12T06:22:22;20.98;80.67
65864;SHT30;52639;51.180;20.460;2023-09-12T06:26:25;22.94;75.09
65864;SHT30;52639;51.180;20.460;2023-09-12T06:30:42;21.83;78.50
65864;SHT30;52639;51.180;20.460;2023-09-12T06:34:45;22.54;76.70
65864;SHT30;52639;51.180;20.460;2023-09-12T06:38:50;22.54;76.52
65864;SHT30;52639;51.180;20.460;2023-09-12T06:42:53;23.93;73.12
65864;SHT30;52639;51.180;20.460;2023-09-12T06:46:56;28.88;61.27
65864;SHT30;52639;51.180;20.460;2023-09-12T06:50:59;30.52;58.71
65864;SHT30;52639;51.180;20.460;2023-09-12T06:55:04;28.98;63.69
65864;SHT30;52639;51.180;20.460;2023-09-12T06:59:07;29.03;64.53
65864;SHT30;52639;51.180;20.460;2023-09-12T07:03:10;31.04;59.94
65864;SHT30;52639;51.180;20.460;2023-09-12T07:07:13;31.68;59.01
65864;SHT30;52639;51.180;20.460;2023-09-12T07:11:18;32.32;58.06
65864;SHT30;52639;51.180;20.460;2023-09-12T07:15:21;33.79;55.52
65864;SHT30;52639;51.180;20.460;2023-09-12T07:19:23;34.99;53.40
65864;SHT30;52639;51.180;20.460;2023-09-12T07:23:27;33.72;55.85
65864;SHT30;52639;51.180;20.460;2023-09-12T07:27:31;32.67;56.82
65864;SHT30;52639;51.180;20.460;2023-09-12T07:31:34;32.78;55.60
65864;SHT30;52639;51.180;20.460;2023-09-12T07:35:38;34.16;51.84
65864;SHT30;52639;51.180;20.460;2023-09-12T07:39:40;35.06;49.87
65864;SHT30;52639;51.180;20.460;2023-09-12T07:43:45;36.35;47.44
65864;SHT30;52639;51.180;20.460;2023-09-12T07:47:49;36.37;48.04
65864;SHT30;52639;51.180;20.460;2023-09-12T07:51:52;36.70;47.77
65864;SHT30;52639;51.180;20.460;2023-09-12T07:55:59;36.52;48.17
65864;SHT30;52639;51.180;20.460;2023-09-12T08:00:05;36.19;48.92
65864;SHT30;52639;51.180;20.460;2023-09-12T08:04:13;35.58;50.36
65864;SHT30;52639;51.180;20.460;2023-09-12T08:08:17;35.13;51.14
65864;SHT30;52639;51.180;20.460;2023-09-12T08:12:21;34.87;51.15
65864;SHT30;52639;51.180;20.460;2023-09-12T08:16:25;34.67;50.90
65864;SHT30;52639;51.180;20.460;2023-09-12T08:20:28;34.32;50.68
65864;SHT30;52639;51.180;20.460;2023-09-12T08:24:32;34.31;50.06
65864;SHT30;52639;51.180;20.460;2023-09-12T08:28:34;33.98;50.43
65864;SHT30;52639;51.180;20.460;2023-09-12T08:32:42;33.82;50.19
65864;SHT30;52639;51.180;20.460;2023-09-12T08:36:47;34.49;49.04
65864;SHT30;52639;51.180;20.460;2023-09-12T08:40:50;33.72;50.79
65864;SHT30;52639;51.180;20.460;2023-09-12T08:44:54;33.96;50.60
65864;SHT30;52639;51.180;20.460;2023-09-12T08:49:01;33.21;51.48
65864;SHT30;52639;51.180;20.460;2023-09-12T08:53:04;33.07;51.03
65864;SHT30;52639;51.180;20.460;2023-09-12T08:57:07;32.77;51.28
65864;SHT30;52639;51.180;20.460;2023-09-12T09:01:13;32.77;50.41
65864;SHT30;52639;51.180;20.460;2023-09-12T09:05:20;32.46;51.37
65864;SHT30;52639;51.180;20.460;2023-09-12T09:09:25;32.56;51.02
65864;SHT30;52639;51.180;20.460;2023-09-12T09:13:28;32.36;51.01
65864;SHT30;52639;51.180;20.460;2023-09-12T09:17:32;31.28;52.49
65864;SHT30;52639;51.180;20.460;2023-09-12T09:21:38;31.14;51.73
65864;SHT30;52639;51.180;20.460;2023-09-12T09:25:42;31.46;51.91
65864;SHT30;52639;51.180;20.460;2023-09-12T09:29:47;31.29;51.71
65864;SHT30;52639;51.180;20.460;2023-09-12T09:33:50;31.24;51.49
65864;SHT30;52639;51.180;20.460;2023-09-12T09:37:55;30.71;51.34
65864;SHT30;52639;51.180;20.460;2023-09-12T09:41:58;30.91;51.18
65864;SHT30;52639;51.180;20.460;2023-09-12T09:46:02;30.56;52.12
65864;SHT30;52639;51.180;20.460;2023-09-12T09:50:06;30.90;50.63
65864;SHT30;52639;51.180;20.460;2023-09-12T09:54:11;30.47;50.20
65864;SHT30;52639;51.180;20.460;2023-09-12T09:58:15;28.83;52.06
65864;SHT30;52639;51.180;20.460;2023-09-12T10:02:21;28.02;53.47
65864;SHT30;52639;51.180;20.460;2023-09-12T10:06:27;28.10;53.11
65864;SHT30;52639;51.180;20.460;2023-09-12T10:10:32;27.14;54.53
65864;SHT30;52639;51.180;20.460;2023-09-12T10:14:39;26.33;55.56
65864;SHT30;52639;51.180;20.460;2023-09-12T10:18:48;26.03;55.62
65864;SHT30;52639;51.180;20.460;2023-09-12T10:22:59;26.40;54.51
65864;SHT30;52639;51.180;20.460;2023-09-12T10:27:06;26.84;53.57
65864;SHT30;52639;51.180;20.460;2023-09-12T10:31:11;26.70;54.27
65864;SHT30;52639;51.180;20.460;2023-09-12T10:35:15;26.17;55.98
65864;SHT30;52639;51.180;20.460;2023-09-12T10:39:19;26.15;56.43
65864;SHT30;52639;51.180;20.460;2023-09-12T10:43:25;25.58;58.40
65864;SHT30;52639;51.180;20.460;2023-09-12T10:47:29;25.35;59.08
65864;SHT30;52639;51.180;20.460;2023-09-12T10:51:32;26.30;56.71
65864;SHT30;52639;51.180;20.460;2023-09-12T10:55:35;26.94;54.85
65864;SHT30;52639;51.180;20.460;2023-09-12T11:00:10;26.06;57.86
65864;SHT30;52639;51.180;20.460;2023-09-12T11:04:38;25.45;59.64
65864;SHT30;52639;51.180;20.460;2023-09-12T11:08:41;25.27;59.81
65864;SHT30;52639;51.180;20.460;2023-09-12T11:12:44;25.95;57.96
65864;SHT30;52639;51.180;20.460;2023-09-12T11:17:23;26.56;55.50
65864;SHT30;52639;51.180;20.460;2023-09-12T11:26:03;26.25;56.83
65864;SHT30;52639;51.180;20.460;2023-09-12T11:30:09;26.79;55.76
65864;SHT30;52639;51.180;20.460;2023-09-12T11:34:17;26.77;56.49
65864;SHT30;52639;51.180;20.460;2023-09-12T11:38:30;27.01;55.96
65864;SHT30;52639;51.180;20.460;2023-09-12T11:42:39;27.23;55.62
65864;SHT30;52639;51.180;20.460;2023-09-12T11:46:47;27.62;54.91
65864;SHT30;52639;51.180;20.460;2023-09-12T11:56:27;28.03;54.25
65864;SHT30;52639;51.180;20.460;2023-09-12T12:00:37;28.16;54.05
65864;SHT30;52639;51.180;20.460;2023-09-12T12:05:17;28.20;53.81
65864;SHT30;52639;51.180;20.460;2023-09-12T12:09:22;28.27;54.03
65864;SHT30;52639;51.180;20.460;2023-09-12T12:13:32;28.73;52.55
65864;SHT30;52639;51.180;20.460;2023-09-12T12:17:40;28.60;53.01
65864;SHT30;52639;51.180;20.460;2023-09-12T12:21:45;28.43;53.26
65864;SHT30;52639;51.180;20.460;2023-09-12T12:25:49;28.13;54.20
65864;SHT30;52639;51.180;20.460;2023-09-12T12:29:54;27.78;54.44
65864;SHT30;52639;51.180;20.460;2023-09-12T12:33:59;27.56;55.08
65864;SHT30;52639;51.180;20.460;2023-09-12T12:38:19;27.76;53.79
65864;SHT30;52639;51.180;20.460;2023-09-12T12:42:23;27.38;54.28
65864;SHT30;52639;51.180;20.460;2023-09-12T12:46:48;27.58;53.03
65864;SHT30;52639;51.180;20.460;2023-09-12T12:50:51;27.61;53.49
65864;SHT30;52639;51.180;20.460;2023-09-12T12:55:03;27.68;52.47
65864;SHT30;52639;51.180;20.460;2023-09-12T12:59:08;27.18;53.95
65864;SHT30;52639;51.180;20.460;2023-09-12T13:08:40;27.18;53.17
65864;SHT30;52639;51.180;20.460;2023-09-12T13:12:44;27.21;52.54
65864;SHT30;52639;51.180;20.460;2023-09-12T13:17:18;26.87;53.41
65864;SHT30;52639;51.180;20.460;2023-09-12T13:21:24;26.84;52.79
65864;SHT30;52639;51.180;20.460;2023-09-12T13:25:31;26.74;53.15
65864;SHT30;52639;51.180;20.460;2023-09-12T13:29:35;26.15;55.23
65864;SHT30;52639;51.180;20.460;2023-09-12T13:33:39;26.53;54.37
65864;SHT30;52639;51.180;20.460;2023-09-12T13:37:43;26.19;55.14
65864;SHT30;52639;51.180;20.460;2023-09-12T13:41:48;26.56;53.76
65864;SHT30;52639;51.180;20.460;2023-09-12T13:45:51;26.16;55.07
65864;SHT30;52639;51.180;20.460;2023-09-12T13:49:53;25.99;55.26
65864;SHT30;52639;51.180;20.460;2023-09-12T13:53:58;25.95;55.38
65864;SHT30;52639;51.180;20.460;2023-09-12T13:58:02;25.76;55.88
65864;SHT30;52639;51.180;20.460;2023-09-12T14:02:06;25.86;55.47
65864;SHT30;52639;51.180;20.460;2023-09-12T14:06:09;25.72;55.97
65864;SHT30;52639;51.180;20.460;2023-09-12T14:10:13;25.46;56.66
65864;SHT30;52639;51.180;20.460;2023-09-12T14:14:18;25.31;57.23
65864;SHT30;52639;51.180;20.460;2023-09-12T14:18:22;25.28;57.29
65864;SHT30;52639;51.180;20.460;2023-09-12T14:22:26;25.08;58.00
65864;SHT30;52639;51.180;20.460;2023-09-12T14:26:31;25.06;58.36
65864;SHT30;52639;51.180;20.460;2023-09-12T14:30:37;25.27;57.76
65864;SHT30;52639;51.180;20.460;2023-09-12T14:34:46;24.95;58.86
65864;SHT30;52639;51.180;20.460;2023-09-12T14:38:53;24.63;60.09
65864;SHT30;52639;51.180;20.460;2023-09-12T14:42:59;24.66;60.22
65864;SHT30;52639;51.180;20.460;2023-09-12T14:47:12;24.50;60.46
65864;SHT30;52639;51.180;20.460;2023-09-12T14:51:17;24.25;60.86
65864;SHT30;52639;51.180;20.460;2023-09-12T14:55:21;24.12;61.55
65864;SHT30;52639;51.180;20.460;2023-09-12T14:59:31;24.44;60.85
65864;SHT30;52639;51.180;20.460;2023-09-12T15:03:51;24.09;61.40
65864;SHT30;52639;51.180;20.460;2023-09-12T15:07:55;24.06;61.25
65864;SHT30;52639;51.180;20.460;2023-09-12T15:11:59;24.10;61.17
65864;SHT30;52639;51.180;20.460;2023-09-12T15:16:03;24.05;61.36
65864;SHT30;52639;51.180;20.460;2023-09-12T15:20:11;23.98;61.72
65864;SHT30;52639;51.180;20.460;2023-09-12T15:24:15;23.98;61.88
65864;SHT30;52639;51.180;20.460;2023-09-12T15:28:19;24.08;61.81
65864;SHT30;52639;51.180;20.460;2023-09-12T15:32:22;24.08;61.63
65864;SHT30;52639;51.180;20.460;2023-09-12T15:36:27;24.23;61.31
65864;SHT30;52639;51.180;20.460;2023-09-12T15:40:31;24.03;61.82
65864;SHT30;52639;51.180;20.460;2023-09-12T15:44:35;23.89;62.28
65864;SHT30;52639;51.180;20.460;2023-09-12T15:48:39;23.72;63.19
65864;SHT30;52639;51.180;20.460;2023-09-12T15:52:45;23.71;63.33
65864;SHT30;52639;51.180;20.460;2023-09-12T15:56:51;23.49;63.79
65864;SHT30;52639;51.180;20.460;2023-09-12T16:05:19;22.94;64.80
65864;SHT30;52639;51.180;20.460;2023-09-12T16:09:31;22.63;65.41
65864;SHT30;52639;51.180;20.460;2023-09-12T16:13:35;22.50;65.38
65864;SHT30;52639;51.180;20.460;2023-09-12T16:17:39;22.12;66.25
65864;SHT30;52639;51.180;20.460;2023-09-12T16:21:43;21.78;66.99
65864;SHT30;52639;51.180;20.460;2023-09-12T16:25:53;21.41;67.92
65864;SHT30;52639;51.180;20.460;2023-09-12T16:29:58;21.07;68.83
65864;SHT30;52639;51.180;20.460;2023-09-12T16:34:05;20.72;69.76
65864;SHT30;52639;51.180;20.460;2023-09-12T16:38:10;20.52;70.46
65864;SHT30;52639;51.180;20.460;2023-09-12T16:42:19;20.13;71.67
65864;SHT30;52639;51.180;20.460;2023-09-12T16:46:22;19.82;72.44
65864;SHT30;52639;51.180;20.460;2023-09-12T16:50:25;19.54;73.34
65864;SHT30;52639;51.180;20.460;2023-09-12T16:54:29;19.51;73.55
65864;SHT30;52639;51.180;20.460;2023-09-12T16:58:35;19.79;73.13
65864;SHT30;52639;51.180;20.460;2023-09-12T17:02:40;19.75;73.31
65864;SHT30;52639;51.180;20.460;2023-09-12T17:06:44;19.45;73.89
65864;SHT30;52639;51.180;20.460;2023-09-12T17:10:48;19.21;74.59
65864;SHT30;52639;51.180;20.460;2023-09-12T17:15:10;19.27;74.67
65864;SHT30;52639;51.180;20.460;2023-09-12T17:19:16;19.06;74.83
65864;SHT30;52639;51.180;20.460;2023-09-12T17:23:21;18.77;75.51
65864;SHT30;52639;51.180;20.460;2023-09-12T17:27:25;18.69;75.76
65864;SHT30;52639;51.180;20.460;2023-09-12T17:31:37;18.67;76.28
65864;SHT30;52639;51.180;20.460;2023-09-12T17:35:44;18.49;76.68
65864;SHT30;52639;51.180;20.460;2023-09-12T17:39:50;18.08;77.56
65864;SHT30;52639;51.180;20.460;2023-09-12T17:43:55;17.65;78.51
65864;SHT30;52639;51.180;20.460;2023-09-12T17:48:03;17.31;79.22
65864;SHT30;52639;51.180;20.460;2023-09-12T17:52:10;17.34;79.15
65864;SHT30;52639;51.180;20.460;2023-09-12T17:56:14;17.52;78.71
65864;SHT30;52639;51.180;20.460;2023-09-12T18:00:23;17.30;78.98
65864;SHT30;52639;51.180;20.460;2023-09-12T18:04:35;16.89;80.07
65864;SHT30;52639;51.180;20.460;2023-09-12T18:08:44;16.97;79.99
65864;SHT30;52639;51.180;20.460;2023-09-12T18:12:54;16.97;79.84
65864;SHT30;52639;51.180;20.460;2023-09-12T18:17:00;16.80;80.21
65864;SHT30;52639;51.180;20.460;2023-09-12T18:21:07;16.65;80.71
65864;SHT30;52639;51.180;20.460;2023-09-12T18:25:11;16.51;80.97
65864;SHT30;52639;51.180;20.460;2023-09-12T18:29:15;16.42;81.26
65864;SHT30;52639;51.180;20.460;2023-09-12T18:33:22;16.49;81.23
65864;SHT30;52639;51.180;20.460;2023-09-12T18:37:53;16.52;81.41
65864;SHT30;52639;51.180;20.460;2023-09-12T18:42:26;16.35;81.81
65864;SHT30;52639;51.180;20.460;2023-09-12T18:46:50;16.16;81.80
65864;SHT30;52639;51.180;20.460;2023-09-12T19:01:04;15.60;82.65
65864;SHT30;52639;51.180;20.460;2023-09-12T19:05:43;15.81;82.36
65864;SHT30;52639;51.180;20.460;2023-09-12T19:09:54;15.75;82.21
65864;SHT30;52639;51.180;20.460;2023-09-12T19:14:05;15.61;82.73
65864;SHT30;52639;51.180;20.460;2023-09-12T19:18:44;15.41;83.28
65864;SHT30;52639;51.180;20.460;2023-09-12T19:23:32;15.48;82.91
65864;SHT30;52639;51.180;20.460;2023-09-12T19:27:40;15.28;83.30
65864;SHT30;52639;51.180;20.460;2023-09-12T19:36:33;15.27;83.47
65864;SHT30;52639;51.180;20.460;2023-09-12T19:40:41;15.26;83.56
65864;SHT30;52639;51.180;20.460;2023-09-12T19:44:49;15.16;83.70
65864;SHT30;52639;51.180;20.460;2023-09-12T19:49:01;14.93;84.10
65864;SHT30;52639;51.180;20.460;2023-09-12T19:53:09;14.77;84.33
65864;SHT30;52639;51.180;20.460;2023-09-12T19:57:18;14.66;84.48
65864;SHT30;52639;51.180;20.460;2023-09-12T20:01:28;14.76;84.44
65864;SHT30;52639;51.180;20.460;2023-09-12T20:05:33;14.75;84.29
65864;SHT30;52639;51.180;20.460;2023-09-12T20:09:38;14.66;84.58
65864;SHT30;52639;51.180;20.460;2023-09-12T20:13:48;14.66;84.56
65864;SHT30;52639;51.180;20.460;2023-09-12T20:18:09;14.69;84.73
65864;SHT30;52639;51.180;20.460;2023-09-12T20:22:14;14.63;84.93
65864;SHT30;52639;51.180;20.460;2023-09-12T20:26:27;14.65;84.94
65864;SHT30;52639;51.180;20.460;2023-09-12T20:31:09;14.58;85.23
65864;SHT30;52639;51.180;20.460;2023-09-12T20:35:14;14.51;85.23
65864;SHT30;52639;51.180;20.460;2023-09-12T20:39:23;14.46;85.38
65864;SHT30;52639;51.180;20.460;2023-09-12T20:43:30;14.46;85.74
65864;SHT30;52639;51.180;20.460;2023-09-12T20:47:34;14.41;85.87
65864;SHT30;52639;51.180;20.460;2023-09-12T20:51:42;14.36;85.73
65864;SHT30;52639;51.180;20.460;2023-09-12T20:55:49;14.31;85.74
65864;SHT30;52639;51.180;20.460;2023-09-12T20:59:58;14.25;85.80
65864;SHT30;52639;51.180;20.460;2023-09-12T21:04:02;14.21;86.15
65864;SHT30;52639;51.180;20.460;2023-09-12T21:08:09;14.17;86.19
65864;SHT30;52639;51.180;20.460;2023-09-12T21:12:12;14.11;86.18
65864;SHT30;52639;51.180;20.460;2023-09-12T21:16:17;14.00;86.35
65864;SHT30;52639;51.180;20.460;2023-09-12T21:20:20;14.01;86.96
65864;SHT30;52639;51.180;20.460;2023-09-12T21:24:23;14.04;87.11
65864;SHT30;52639;51.180;20.460;2023-09-12T21:28:26;14.02;87.15
65864;SHT30;52639;51.180;20.460;2023-09-12T21:32:30;13.95;87.02
65864;SHT30;52639;51.180;20.460;2023-09-12T21:36:33;13.84;87.01
65864;SHT30;52639;51.180;20.460;2023-09-12T21:40:36;13.82;87.13
65864;SHT30;52639;51.180;20.460;2023-09-12T21:44:39;13.82;87.27
65864;SHT30;52639;51.180;20.460;2023-09-12T21:48:44;13.78;87.00
65864;SHT30;52639;51.180;20.460;2023-09-12T21:52:46;13.68;87.13
65864;SHT30;52639;51.180;20.460;2023-09-12T21:56:49;13.64;87.14
65864;SHT30;52639;51.180;20.460;2023-09-12T22:00:54;13.61;87.11
65864;SHT30;52639;51.180;20.460;2023-09-12T22:05:00;13.42;87.28
65864;SHT30;52639;51.180;20.460;2023-09-12T22:09:03;13.40;87.43
65864;SHT30;52639;51.180;20.460;2023-09-12T22:13:06;13.36;87.31
65864;SHT30;52639;51.180;20.460;2023-09-12T22:17:09;13.14;87.66
65864;SHT30;52639;51.180;20.460;2023-09-12T22:21:14;13.28;87.50
65864;SHT30;52639;51.180;20.460;2023-09-12T22:25:17;13.34;87.25
65864;SHT30;52639;51.180;20.460;2023-09-12T22:29:20;13.30;87.25
65864;SHT30;52639;51.180;20.460;2023-09-12T22:33:23;13.17;87.47
65864;SHT30;52639;51.180;20.460;2023-09-12T22:37:28;13.20;87.55
65864;SHT30;52639;51.180;20.460;2023-09-12T22:41:30;13.24;87.66
65864;SHT30;52639;51.180;20.460;2023-09-12T22:45:33;13.24;87.56
65864;SHT30;52639;51.180;20.460;2023-09-12T22:49:36;13.19;87.66
65864;SHT30;52639;51.180;20.460;2023-09-12T22:53:41;13.13;87.73
65864;SHT30;52639;51.180;20.460;2023-09-12T22:57:44;13.04;88.01
65864;SHT30;52639;51.180;20.460;2023-09-12T23:01:47;13.02;88.26
65864;SHT30;52639;51.180;20.460;2023-09-12T23:05:50;13.04;88.63
65864;SHT30;52639;51.180;20.460;2023-09-12T23:09:57;13.02;88.61
65864;SHT30;52639;51.180;20.460;2023-09-12T23:14:00;12.92;88.49
65864;SHT30;52639;51.180;20.460;2023-09-12T23:18:04;12.93;88.45
65864;SHT30;52639;51.180;20.460;2023-09-12T23:22:07;12.88;88.31
65864;SHT30;52639;51.180;20.460;2023-09-12T23:26:12;12.82;88.32
65864;SHT30;52639;51.180;20.460;2023-09-12T23:30:17;12.78;88.52
65864;SHT30;52639;51.180;20.460;2023-09-12T23:34:23;12.78;88.45
65864;SHT30;52639;51.180;20.460;2023-09-12T23:38:26;12.72;88.60
65864;SHT30;52639;51.180;20.460;2023-09-12T23:42:33;12.70;88.38
65864;SHT30;52639;51.180;20.460;2023-09-12T23:46:36;12.65;88.60
65864;SHT30;52639;51.180;20.460;2023-09-12T23:50:41;12.65;88.57
65864;SHT30;52639;51.180;20.460;2023-09-12T23:55:12;12.60;88.51
65864;SHT30;52639;51.180;20.460;2023-09-12T23:59:46;12.56;88.54
